sensor_id;sensor_type;location;lat;lon;timestamp;P1;durP1;ratioP1;P2;durP2;ratioP2
14766;SDS011;7475;53.558;9.970;2024-02-15T00:00:58;28.17;;;17.05;;
14766;SDS011;7475;53.558;9.970;2024-02-15T00:03:24;31.90;;;17.90;;
14766;SDS011;7475;53.558;9.970;2024-02-15T00:05:50;33.67;;;18.58;;
14766;SDS011;7475;53.558;9.970;2024-02-15T00:08:15;27.30;;;17.02;;
14766;SDS011;7475;53.558;9.970;2024-02-15T00:10:41;28.52;;;17.42;;
14766;SDS011;7475;53.558;9.970;2024-02-15T00:13:06;28.92;;;20.23;;
14766;SDS011;7475;53.558;9.970;2024-02-15T00:15:32;32.72;;;19.40;;
14766;SDS011;7475;53.558;9.970;2024-02-15T00:17:59;26.52;;;17.00;;
14766;SDS011;7475;53.558;9.970;2024-02-15T00:20:25;33.20;;;20.27;;
14766;SDS011;7475;53.558;9.970;2024-02-15T00:22:50;38.42;;;20.30;;
14766;SDS011;7475;53.558;9.970;2024-02-15T00:25:17;34.60;;;20.50;;
14766;SDS011;7475;53.558;9.970;2024-02-15T00:27:44;33.83;;;19.88;;
14766;SDS011;7475;53.558;9.970;2024-02-15T00:30:10;38.95;;;25.48;;
14766;SDS011;7475;53.558;9.970;2024-02-15T00:32:36;31.95;;;20.45;;
14766;SDS011;7475;53.558;9.970;2024-02-15T00:35:02;33.08;;;20.70;;
14766;SDS011;7475;53.558;9.970;2024-02-15T00:37:27;32.88;;;20.38;;
14766;SDS011;7475;53.558;9.970;2024-02-15T00:39:53;33.13;;;20.17;;
14766;SDS011;7475;53.558;9.970;2024-02-15T00:42:18;36.42;;;22.55;;
14766;SDS011;7475;53.558;9.970;2024-02-15T00:44:44;31.90;;;21.48;;
14766;SDS011;7475;53.558;9.970;2024-02-15T00:47:09;33.60;;;21.55;;
14766;SDS011;7475;53.558;9.970;2024-02-15T00:49:37;30.63;;;21.60;;
14766;SDS011;7475;53.558;9.970;2024-02-15T00:52:02;29.20;;;21.10;;
14766;SDS011;7475;53.558;9.970;2024-02-15T00:54:28;31.15;;;22.30;;
14766;SDS011;7475;53.558;9.970;2024-02-15T00:56:53;32.28;;;21.75;;
14766;SDS011;7475;53.558;9.970;2024-02-15T00:59:18;27.67;;;19.13;;
14766;SDS011;7475;53.558;9.970;2024-02-15T01:01:44;28.63;;;21.10;;
14766;SDS011;7475;53.558;9.970;2024-02-15T01:04:09;27.48;;;20.65;;
14766;SDS011;7475;53.558;9.970;2024-02-15T01:06:35;29.70;;;21.90;;
14766;SDS011;7475;53.558;9.970;2024-02-15T01:09:01;33.63;;;22.13;;
14766;SDS011;7475;53.558;9.970;2024-02-15T01:11:28;28.92;;;21.30;;
14766;SDS011;7475;53.558;9.970;2024-02-15T01:13:54;32.63;;;21.80;;
14766;SDS011;7475;53.558;9.970;2024-02-15T01:16:19;30.50;;;21.75;;
14766;SDS011;7475;53.558;9.970;2024-02-15T01:18:46;34.00;;;21.67;;
14766;SDS011;7475;53.558;9.970;2024-02-15T01:21:12;31.13;;;21.85;;
14766;SDS011;7475;53.558;9.970;2024-02-15T01:23:38;31.92;;;22.42;;
14766;SDS011;7475;53.558;9.970;2024-02-15T01:26:03;29.13;;;21.20;;
14766;SDS011;7475;53.558;9.970;2024-02-15T01:28:30;31.15;;;21.58;;
14766;SDS011;7475;53.558;9.970;2024-02-15T01:30:55;34.78;;;21.80;;
14766;SDS011;7475;53.558;9.970;2024-02-15T01:33:21;31.83;;;21.98;;
14766;SDS011;7475;53.558;9.970;2024-02-15T01:35:46;29.33;;;20.92;;
14766;SDS011;7475;53.558;9.970;2024-02-15T01:38:11;28.35;;;20.02;;
14766;SDS011;7475;53.558;9.970;2024-02-15T01:40:37;32.95;;;21.90;;
14766;SDS011;7475;53.558;9.970;2024-02-15T01:43:03;28.88;;;21.08;;
14766;SDS011;7475;53.558;9.970;2024-02-15T01:45:28;31.33;;;19.73;;
14766;SDS011;7475;53.558;9.970;2024-02-15T01:47:54;30.55;;;21.02;;
14766;SDS011;7475;53.558;9.970;2024-02-15T01:50:20;26.80;;;19.60;;
14766;SDS011;7475;53.558;9.970;2024-02-15T01:52:47;28.77;;;20.05;;
14766;SDS011;7475;53.558;9.970;2024-02-15T01:55:17;29.20;;;20.42;;
14766;SDS011;7475;53.558;9.970;2024-02-15T01:57:43;29.67;;;20.05;;
14766;SDS011;7475;53.558;9.970;2024-02-15T02:00:11;28.27;;;20.13;;
14766;SDS011;7475;53.558;9.970;2024-02-15T02:02:38;34.38;;;21.52;;
14766;SDS011;7475;53.558;9.970;2024-02-15T02:05:06;29.17;;;21.45;;
14766;SDS011;7475;53.558;9.970;2024-02-15T02:07:31;33.15;;;22.27;;
14766;SDS011;7475;53.558;9.970;2024-02-15T02:09:57;32.85;;;22.27;;
14766;SDS011;7475;53.558;9.970;2024-02-15T02:12:22;38.35;;;22.38;;
14766;SDS011;7475;53.558;9.970;2024-02-15T02:14:49;31.15;;;20.70;;
14766;SDS011;7475;53.558;9.970;2024-02-15T02:17:15;30.40;;;21.15;;
14766;SDS011;7475;53.558;9.970;2024-02-15T02:19:41;32.47;;;22.42;;
14766;SDS011;7475;53.558;9.970;2024-02-15T02:22:07;33.08;;;22.13;;
14766;SDS011;7475;53.558;9.970;2024-02-15T02:24:36;33.50;;;21.63;;
14766;SDS011;7475;53.558;9.970;2024-02-15T02:27:18;35.38;;;22.65;;
14766;SDS011;7475;53.558;9.970;2024-02-15T02:29:45;36.63;;;22.98;;
14766;SDS011;7475;53.558;9.970;2024-02-15T02:32:11;32.50;;;21.80;;
14766;SDS011;7475;53.558;9.970;2024-02-15T02:34:37;35.85;;;21.02;;
14766;SDS011;7475;53.558;9.970;2024-02-15T02:37:03;34.80;;;22.65;;
14766;SDS011;7475;53.558;9.970;2024-02-15T02:39:30;36.38;;;21.75;;
14766;SDS011;7475;53.558;9.970;2024-02-15T02:41:56;48.22;;;23.67;;
14766;SDS011;7475;53.558;9.970;2024-02-15T02:44:22;51.38;;;24.02;;
14766;SDS011;7475;53.558;9.970;2024-02-15T02:46:47;45.70;;;24.52;;
14766;SDS011;7475;53.558;9.970;2024-02-15T02:49:13;47.83;;;24.45;;
14766;SDS011;7475;53.558;9.970;2024-02-15T02:51:38;43.63;;;24.05;;
14766;SDS011;7475;53.558;9.970;2024-02-15T02:54:03;45.75;;;23.90;;
14766;SDS011;7475;53.558;9.970;2024-02-15T02:56:31;39.58;;;22.52;;
14766;SDS011;7475;53.558;9.970;2024-02-15T02:58:57;42.05;;;22.40;;
14766;SDS011;7475;53.558;9.970;2024-02-15T03:01:23;37.80;;;22.13;;
14766;SDS011;7475;53.558;9.970;2024-02-15T03:03:51;40.63;;;22.83;;
14766;SDS011;7475;53.558;9.970;2024-02-15T03:06:20;38.85;;;21.00;;
14766;SDS011;7475;53.558;9.970;2024-02-15T03:08:45;35.17;;;18.92;;
14766;SDS011;7475;53.558;9.970;2024-02-15T03:11:10;39.42;;;21.20;;
14766;SDS011;7475;53.558;9.970;2024-02-15T03:13:37;33.55;;;19.17;;
14766;SDS011;7475;53.558;9.970;2024-02-15T03:16:02;33.05;;;18.60;;
14766;SDS011;7475;53.558;9.970;2024-02-15T03:18:29;37.33;;;20.02;;
14766;SDS011;7475;53.558;9.970;2024-02-15T03:20:54;38.75;;;18.10;;
14766;SDS011;7475;53.558;9.970;2024-02-15T03:23:20;36.13;;;19.35;;
14766;SDS011;7475;53.558;9.970;2024-02-15T03:25:45;40.03;;;20.30;;
14766;SDS011;7475;53.558;9.970;2024-02-15T03:28:10;34.78;;;19.23;;
14766;SDS011;7475;53.558;9.970;2024-02-15T03:30:36;42.95;;;19.52;;
14766;SDS011;7475;53.558;9.970;2024-02-15T03:33:01;33.85;;;18.60;;
14766;SDS011;7475;53.558;9.970;2024-02-15T03:35:30;38.47;;;19.35;;
14766;SDS011;7475;53.558;9.970;2024-02-15T03:37:56;41.92;;;20.13;;
14766;SDS011;7475;53.558;9.970;2024-02-15T03:40:22;46.35;;;20.33;;
14766;SDS011;7475;53.558;9.970;2024-02-15T03:42:48;46.17;;;20.67;;
14766;SDS011;7475;53.558;9.970;2024-02-15T03:45:15;40.42;;;19.50;;
14766;SDS011;7475;53.558;9.970;2024-02-15T03:47:41;40.47;;;20.73;;
14766;SDS011;7475;53.558;9.970;2024-02-15T03:50:06;47.75;;;21.02;;
14766;SDS011;7475;53.558;9.970;2024-02-15T03:52:37;43.53;;;20.23;;
14766;SDS011;7475;53.558;9.970;2024-02-15T03:55:02;48.17;;;20.98;;
14766;SDS011;7475;53.558;9.970;2024-02-15T03:57:28;44.05;;;22.48;;
14766;SDS011;7475;53.558;9.970;2024-02-15T03:59:53;45.63;;;20.63;;
14766;SDS011;7475;53.558;9.970;2024-02-15T04:02:21;46.65;;;22.10;;
14766;SDS011;7475;53.558;9.970;2024-02-15T04:04:48;50.53;;;21.88;;
14766;SDS011;7475;53.558;9.970;2024-02-15T04:07:14;47.20;;;22.08;;
14766;SDS011;7475;53.558;9.970;2024-02-15T04:09:41;47.50;;;23.10;;
14766;SDS011;7475;53.558;9.970;2024-02-15T04:12:07;54.50;;;23.25;;
14766;SDS011;7475;53.558;9.970;2024-02-15T04:14:33;44.63;;;22.13;;
14766;SDS011;7475;53.558;9.970;2024-02-15T04:16:59;52.03;;;23.85;;
14766;SDS011;7475;53.558;9.970;2024-02-15T04:19:26;51.92;;;23.25;;
14766;SDS011;7475;53.558;9.970;2024-02-15T04:21:52;61.78;;;23.90;;
14766;SDS011;7475;53.558;9.970;2024-02-15T04:24:17;52.55;;;23.70;;
14766;SDS011;7475;53.558;9.970;2024-02-15T04:26:42;53.38;;;24.73;;
14766;SDS011;7475;53.558;9.970;2024-02-15T04:29:08;60.17;;;25.15;;
14766;SDS011;7475;53.558;9.970;2024-02-15T04:31:34;57.75;;;24.38;;
14766;SDS011;7475;53.558;9.970;2024-02-15T04:34:02;55.42;;;25.17;;
14766;SDS011;7475;53.558;9.970;2024-02-15T04:36:28;51.22;;;24.67;;
14766;SDS011;7475;53.558;9.970;2024-02-15T04:38:58;53.83;;;24.35;;
14766;SDS011;7475;53.558;9.970;2024-02-15T04:41:24;54.97;;;25.65;;
14766;SDS011;7475;53.558;9.970;2024-02-15T04:43:49;51.05;;;24.25;;
14766;SDS011;7475;53.558;9.970;2024-02-15T04:46:15;43.47;;;24.45;;
14766;SDS011;7475;53.558;9.970;2024-02-15T04:48:41;47.90;;;25.10;;
14766;SDS011;7475;53.558;9.970;2024-02-15T04:51:07;53.85;;;24.52;;
14766;SDS011;7475;53.558;9.970;2024-02-15T04:53:33;55.25;;;26.00;;
14766;SDS011;7475;53.558;9.970;2024-02-15T04:55:59;52.08;;;25.48;;
14766;SDS011;7475;53.558;9.970;2024-02-15T04:58:26;50.72;;;24.55;;
14766;SDS011;7475;53.558;9.970;2024-02-15T05:00:53;46.90;;;24.65;;
14766;SDS011;7475;53.558;9.970;2024-02-15T05:03:23;54.50;;;26.08;;
14766;SDS011;7475;53.558;9.970;2024-02-15T05:05:49;49.72;;;24.55;;
14766;SDS011;7475;53.558;9.970;2024-02-15T05:08:15;55.38;;;26.45;;
14766;SDS011;7475;53.558;9.970;2024-02-15T05:10:40;54.20;;;25.83;;
14766;SDS011;7475;53.558;9.970;2024-02-15T05:13:06;68.25;;;26.60;;
14766;SDS011;7475;53.558;9.970;2024-02-15T05:15:31;63.30;;;27.50;;
14766;SDS011;7475;53.558;9.970;2024-02-15T05:17:58;58.17;;;25.92;;
14766;SDS011;7475;53.558;9.970;2024-02-15T05:20:23;53.13;;;24.42;;
14766;SDS011;7475;53.558;9.970;2024-02-15T05:22:50;56.55;;;26.00;;
14766;SDS011;7475;53.558;9.970;2024-02-15T05:25:15;56.13;;;25.98;;
14766;SDS011;7475;53.558;9.970;2024-02-15T05:27:47;56.55;;;25.95;;
14766;SDS011;7475;53.558;9.970;2024-02-15T05:30:12;44.88;;;23.88;;
14766;SDS011;7475;53.558;9.970;2024-02-15T05:32:39;55.28;;;26.15;;
14766;SDS011;7475;53.558;9.970;2024-02-15T05:35:09;56.30;;;26.90;;
14766;SDS011;7475;53.558;9.970;2024-02-15T05:37:36;50.88;;;23.67;;
14766;SDS011;7475;53.558;9.970;2024-02-15T05:40:01;55.47;;;24.92;;
14766;SDS011;7475;53.558;9.970;2024-02-15T05:42:27;50.55;;;23.92;;
14766;SDS011;7475;53.558;9.970;2024-02-15T05:44:52;47.97;;;23.73;;
14766;SDS011;7475;53.558;9.970;2024-02-15T05:47:17;55.50;;;24.98;;
14766;SDS011;7475;53.558;9.970;2024-02-15T05:49:43;61.08;;;26.05;;
14766;SDS011;7475;53.558;9.970;2024-02-15T05:52:10;53.03;;;25.25;;
14766;SDS011;7475;53.558;9.970;2024-02-15T05:54:35;55.42;;;26.33;;
14766;SDS011;7475;53.558;9.970;2024-02-15T05:57:01;54.10;;;26.35;;
14766;SDS011;7475;53.558;9.970;2024-02-15T05:59:26;60.38;;;27.90;;
14766;SDS011;7475;53.558;9.970;2024-02-15T06:01:52;66.72;;;28.83;;
14766;SDS011;7475;53.558;9.970;2024-02-15T06:04:17;71.00;;;30.42;;
14766;SDS011;7475;53.558;9.970;2024-02-15T06:06:43;54.55;;;27.73;;
14766;SDS011;7475;53.558;9.970;2024-02-15T06:09:08;58.78;;;29.52;;
14766;SDS011;7475;53.558;9.970;2024-02-15T06:11:34;53.65;;;27.58;;
14766;SDS011;7475;53.558;9.970;2024-02-15T06:14:00;60.28;;;28.33;;
14766;SDS011;7475;53.558;9.970;2024-02-15T06:16:26;44.13;;;25.05;;
14766;SDS011;7475;53.558;9.970;2024-02-15T06:18:51;53.50;;;24.80;;
14766;SDS011;7475;53.558;9.970;2024-02-15T06:21:17;51.20;;;25.10;;
14766;SDS011;7475;53.558;9.970;2024-02-15T06:23:43;57.55;;;26.33;;
14766;SDS011;7475;53.558;9.970;2024-02-15T06:26:09;55.72;;;26.10;;
14766;SDS011;7475;53.558;9.970;2024-02-15T06:28:36;54.47;;;26.63;;
14766;SDS011;7475;53.558;9.970;2024-02-15T06:31:20;54.20;;;25.35;;
14766;SDS011;7475;53.558;9.970;2024-02-15T06:34:04;54.35;;;24.17;;
14766;SDS011;7475;53.558;9.970;2024-02-15T06:39:33;52.45;;;24.33;;
14766;SDS011;7475;53.558;9.970;2024-02-15T06:42:08;57.10;;;25.17;;
14766;SDS011;7475;53.558;9.970;2024-02-15T06:44:36;51.33;;;24.25;;
14766;SDS011;7475;53.558;9.970;2024-02-15T06:47:02;56.55;;;25.75;;
14766;SDS011;7475;53.558;9.970;2024-02-15T06:49:27;62.33;;;26.90;;
14766;SDS011;7475;53.558;9.970;2024-02-15T06:51:53;51.25;;;22.08;;
14766;SDS011;7475;53.558;9.970;2024-02-15T06:54:19;64.85;;;27.13;;
14766;SDS011;7475;53.558;9.970;2024-02-15T06:56:45;51.45;;;24.33;;
14766;SDS011;7475;53.558;9.970;2024-02-15T06:59:11;56.40;;;25.83;;
14766;SDS011;7475;53.558;9.970;2024-02-15T07:01:40;59.22;;;24.88;;
14766;SDS011;7475;53.558;9.970;2024-02-15T07:04:07;58.90;;;24.98;;
14766;SDS011;7475;53.558;9.970;2024-02-15T07:06:35;49.58;;;23.20;;
14766;SDS011;7475;53.558;9.970;2024-02-15T07:09:02;48.10;;;24.70;;
14766;SDS011;7475;53.558;9.970;2024-02-15T07:11:28;52.75;;;25.20;;
14766;SDS011;7475;53.558;9.970;2024-02-15T07:13:55;54.47;;;25.00;;
14766;SDS011;7475;53.558;9.970;2024-02-15T07:16:20;47.03;;;24.70;;
14766;SDS011;7475;53.558;9.970;2024-02-15T07:18:46;45.13;;;24.65;;
14766;SDS011;7475;53.558;9.970;2024-02-15T07:21:11;45.63;;;23.55;;
14766;SDS011;7475;53.558;9.970;2024-02-15T07:23:39;44.65;;;24.95;;
14766;SDS011;7475;53.558;9.970;2024-02-15T07:26:06;43.33;;;22.80;;
14766;SDS011;7475;53.558;9.970;2024-02-15T07:28:31;43.67;;;22.38;;
14766;SDS011;7475;53.558;9.970;2024-02-15T07:30:57;42.63;;;23.48;;
14766;SDS011;7475;53.558;9.970;2024-02-15T07:33:22;37.38;;;21.33;;
14766;SDS011;7475;53.558;9.970;2024-02-15T07:35:48;41.88;;;22.30;;
14766;SDS011;7475;53.558;9.970;2024-02-15T07:38:18;36.83;;;20.98;;
14766;SDS011;7475;53.558;9.970;2024-02-15T07:40:44;36.67;;;20.67;;
14766;SDS011;7475;53.558;9.970;2024-02-15T07:43:09;39.53;;;21.48;;
14766;SDS011;7475;53.558;9.970;2024-02-15T07:45:35;35.55;;;20.13;;
14766;SDS011;7475;53.558;9.970;2024-02-15T07:48:02;37.25;;;21.17;;
14766;SDS011;7475;53.558;9.970;2024-02-15T07:50:29;35.85;;;19.35;;
14766;SDS011;7475;53.558;9.970;2024-02-15T07:52:55;34.53;;;19.67;;
14766;SDS011;7475;53.558;9.970;2024-02-15T07:55:21;31.70;;;19.88;;
14766;SDS011;7475;53.558;9.970;2024-02-15T07:57:46;31.95;;;19.85;;
14766;SDS011;7475;53.558;9.970;2024-02-15T08:00:13;29.58;;;18.85;;
14766;SDS011;7475;53.558;9.970;2024-02-15T08:02:41;33.15;;;20.33;;
14766;SDS011;7475;53.558;9.970;2024-02-15T08:05:09;31.00;;;19.15;;
14766;SDS011;7475;53.558;9.970;2024-02-15T08:07:40;33.03;;;19.67;;
14766;SDS011;7475;53.558;9.970;2024-02-15T08:10:09;35.80;;;19.33;;
14766;SDS011;7475;53.558;9.970;2024-02-15T08:12:44;29.45;;;18.73;;
14766;SDS011;7475;53.558;9.970;2024-02-15T08:15:11;30.67;;;19.10;;
14766;SDS011;7475;53.558;9.970;2024-02-15T08:20:11;23.10;;;16.45;;
14766;SDS011;7475;53.558;9.970;2024-02-15T08:22:38;22.08;;;14.00;;
14766;SDS011;7475;53.558;9.970;2024-02-15T08:25:07;24.13;;;16.38;;
14766;SDS011;7475;53.558;9.970;2024-02-15T08:27:38;24.63;;;16.13;;
14766;SDS011;7475;53.558;9.970;2024-02-15T08:30:09;23.65;;;16.38;;
14766;SDS011;7475;53.558;9.970;2024-02-15T08:32:36;21.63;;;14.98;;
14766;SDS011;7475;53.558;9.970;2024-02-15T08:35:02;25.50;;;16.23;;
14766;SDS011;7475;53.558;9.970;2024-02-15T08:37:29;18.70;;;13.90;;
14766;SDS011;7475;53.558;9.970;2024-02-15T08:39:57;16.33;;;12.02;;
14766;SDS011;7475;53.558;9.970;2024-02-15T08:42:22;15.60;;;11.82;;
14766;SDS011;7475;53.558;9.970;2024-02-15T08:44:48;15.73;;;11.40;;
14766;SDS011;7475;53.558;9.970;2024-02-15T08:47:13;12.52;;;9.45;;
14766;SDS011;7475;53.558;9.970;2024-02-15T08:49:39;13.00;;;9.88;;
14766;SDS011;7475;53.558;9.970;2024-02-15T08:52:05;13.35;;;10.18;;
14766;SDS011;7475;53.558;9.970;2024-02-15T08:54:32;12.38;;;9.48;;
14766;SDS011;7475;53.558;9.970;2024-02-15T08:57:03;12.30;;;9.18;;
14766;SDS011;7475;53.558;9.970;2024-02-15T08:59:29;13.85;;;9.00;;
14766;SDS011;7475;53.558;9.970;2024-02-15T09:01:55;11.15;;;9.00;;
14766;SDS011;7475;53.558;9.970;2024-02-15T09:04:21;14.32;;;9.48;;
14766;SDS011;7475;53.558;9.970;2024-02-15T09:06:49;11.82;;;9.45;;
14766;SDS011;7475;53.558;9.970;2024-02-15T09:09:16;11.45;;;9.02;;
14766;SDS011;7475;53.558;9.970;2024-02-15T09:11:41;14.18;;;9.65;;
14766;SDS011;7475;53.558;9.970;2024-02-15T09:14:06;11.82;;;9.38;;
14766;SDS011;7475;53.558;9.970;2024-02-15T09:16:35;12.57;;;9.40;;
14766;SDS011;7475;53.558;9.970;2024-02-15T09:19:00;10.93;;;8.85;;
14766;SDS011;7475;53.558;9.970;2024-02-15T09:21:26;14.18;;;9.95;;
14766;SDS011;7475;53.558;9.970;2024-02-15T09:23:54;12.60;;;10.23;;
14766;SDS011;7475;53.558;9.970;2024-02-15T09:26:19;13.60;;;10.40;;
14766;SDS011;7475;53.558;9.970;2024-02-15T09:28:45;12.20;;;10.50;;
14766;SDS011;7475;53.558;9.970;2024-02-15T09:31:14;12.82;;;10.63;;
14766;SDS011;7475;53.558;9.970;2024-02-15T09:33:39;13.90;;;10.82;;
14766;SDS011;7475;53.558;9.970;2024-02-15T09:36:05;14.88;;;10.80;;
14766;SDS011;7475;53.558;9.970;2024-02-15T09:38:30;16.00;;;12.55;;
14766;SDS011;7475;53.558;9.970;2024-02-15T09:40:56;15.65;;;11.43;;
14766;SDS011;7475;53.558;9.970;2024-02-15T09:43:21;19.58;;;12.27;;
14766;SDS011;7475;53.558;9.970;2024-02-15T09:45:51;19.50;;;13.15;;
14766;SDS011;7475;53.558;9.970;2024-02-15T09:48:17;19.65;;;13.38;;
14766;SDS011;7475;53.558;9.970;2024-02-15T09:50:43;19.15;;;12.85;;
14766;SDS011;7475;53.558;9.970;2024-02-15T09:53:11;20.02;;;13.45;;
14766;SDS011;7475;53.558;9.970;2024-02-15T09:55:39;17.88;;;12.75;;
14766;SDS011;7475;53.558;9.970;2024-02-15T09:58:06;20.63;;;12.55;;
14766;SDS011;7475;53.558;9.970;2024-02-15T10:00:33;20.45;;;13.88;;
14766;SDS011;7475;53.558;9.970;2024-02-15T10:03:00;20.98;;;14.82;;
14766;SDS011;7475;53.558;9.970;2024-02-15T10:05:27;19.95;;;15.50;;
14766;SDS011;7475;53.558;9.970;2024-02-15T10:07:53;19.15;;;13.63;;
14766;SDS011;7475;53.558;9.970;2024-02-15T10:12:53;18.27;;;13.93;;
14766;SDS011;7475;53.558;9.970;2024-02-15T10:18:04;27.33;;;16.02;;
14766;SDS011;7475;53.558;9.970;2024-02-15T10:20:33;18.90;;;11.90;;
14766;SDS011;7475;53.558;9.970;2024-02-15T10:25:28;22.40;;;14.77;;
14766;SDS011;7475;53.558;9.970;2024-02-15T10:28:07;19.80;;;15.57;;
14766;SDS011;7475;53.558;9.970;2024-02-15T10:30:34;24.50;;;17.55;;
14766;SDS011;7475;53.558;9.970;2024-02-15T10:33:01;22.83;;;17.00;;
14766;SDS011;7475;53.558;9.970;2024-02-15T10:35:27;27.00;;;18.80;;
14766;SDS011;7475;53.558;9.970;2024-02-15T10:37:54;23.95;;;17.73;;
14766;SDS011;7475;53.558;9.970;2024-02-15T10:40:30;22.30;;;17.73;;
14766;SDS011;7475;53.558;9.970;2024-02-15T10:42:55;24.23;;;17.20;;
14766;SDS011;7475;53.558;9.970;2024-02-15T10:45:24;34.42;;;21.80;;
14766;SDS011;7475;53.558;9.970;2024-02-15T10:47:50;25.13;;;17.48;;
14766;SDS011;7475;53.558;9.970;2024-02-15T10:50:16;25.63;;;18.50;;
14766;SDS011;7475;53.558;9.970;2024-02-15T10:52:51;27.48;;;19.23;;
14766;SDS011;7475;53.558;9.970;2024-02-15T10:57:58;22.70;;;17.85;;
14766;SDS011;7475;53.558;9.970;2024-02-15T11:00:30;24.65;;;18.25;;
14766;SDS011;7475;53.558;9.970;2024-02-15T11:05:23;28.10;;;19.38;;
14766;SDS011;7475;53.558;9.970;2024-02-15T11:07:49;29.48;;;20.38;;
14766;SDS011;7475;53.558;9.970;2024-02-15T11:10:16;27.77;;;20.17;;
14766;SDS011;7475;53.558;9.970;2024-02-15T11:12:42;28.45;;;20.40;;
14766;SDS011;7475;53.558;9.970;2024-02-15T11:15:09;27.92;;;20.52;;
14766;SDS011;7475;53.558;9.970;2024-02-15T11:20:02;32.80;;;21.80;;
14766;SDS011;7475;53.558;9.970;2024-02-15T11:22:33;30.48;;;22.38;;
14766;SDS011;7475;53.558;9.970;2024-02-15T11:25:01;35.50;;;23.08;;
14766;SDS011;7475;53.558;9.970;2024-02-15T11:27:33;32.03;;;22.83;;
14766;SDS011;7475;53.558;9.970;2024-02-15T11:30:02;31.65;;;22.17;;
14766;SDS011;7475;53.558;9.970;2024-02-15T11:32:41;32.97;;;22.85;;
14766;SDS011;7475;53.558;9.970;2024-02-15T11:35:17;38.45;;;24.48;;
14766;SDS011;7475;53.558;9.970;2024-02-15T11:40:14;35.45;;;23.63;;
14766;SDS011;7475;53.558;9.970;2024-02-15T11:42:48;37.83;;;24.67;;
14766;SDS011;7475;53.558;9.970;2024-02-15T11:45:18;40.05;;;26.15;;
14766;SDS011;7475;53.558;9.970;2024-02-15T11:47:44;42.67;;;25.50;;
14766;SDS011;7475;53.558;9.970;2024-02-15T11:50:17;35.60;;;24.08;;
14766;SDS011;7475;53.558;9.970;2024-02-15T11:52:47;40.97;;;26.85;;
14766;SDS011;7475;53.558;9.970;2024-02-15T11:55:14;39.03;;;25.65;;
14766;SDS011;7475;53.558;9.970;2024-02-15T11:57:44;47.10;;;27.77;;
14766;SDS011;7475;53.558;9.970;2024-02-15T12:00:30;47.17;;;27.83;;
14766;SDS011;7475;53.558;9.970;2024-02-15T12:03:14;50.22;;;28.67;;
14766;SDS011;7475;53.558;9.970;2024-02-15T12:05:59;41.90;;;27.05;;
14766;SDS011;7475;53.558;9.970;2024-02-15T12:08:44;40.00;;;26.13;;
14766;SDS011;7475;53.558;9.970;2024-02-15T12:11:28;38.30;;;25.02;;
14766;SDS011;7475;53.558;9.970;2024-02-15T12:14:12;42.58;;;27.45;;
14766;SDS011;7475;53.558;9.970;2024-02-15T12:19:44;44.58;;;27.15;;
14766;SDS011;7475;53.558;9.970;2024-02-15T12:22:10;44.83;;;26.23;;
14766;SDS011;7475;53.558;9.970;2024-02-15T12:24:35;40.67;;;24.00;;
14766;SDS011;7475;53.558;9.970;2024-02-15T12:27:01;42.67;;;25.75;;
14766;SDS011;7475;53.558;9.970;2024-02-15T12:29:30;33.35;;;23.27;;
14766;SDS011;7475;53.558;9.970;2024-02-15T12:31:58;35.38;;;23.98;;
14766;SDS011;7475;53.558;9.970;2024-02-15T12:34:24;32.28;;;21.45;;
14766;SDS011;7475;53.558;9.970;2024-02-15T12:36:49;29.50;;;20.60;;
14766;SDS011;7475;53.558;9.970;2024-02-15T12:39:15;30.42;;;20.63;;
14766;SDS011;7475;53.558;9.970;2024-02-15T12:41:49;31.00;;;21.63;;
14766;SDS011;7475;53.558;9.970;2024-02-15T12:44:18;29.70;;;20.23;;
14766;SDS011;7475;53.558;9.970;2024-02-15T12:46:53;28.73;;;19.45;;
14766;SDS011;7475;53.558;9.970;2024-02-15T12:51:49;24.75;;;16.35;;
14766;SDS011;7475;53.558;9.970;2024-02-15T12:54:22;23.60;;;16.15;;
14766;SDS011;7475;53.558;9.970;2024-02-15T12:56:47;18.02;;;14.52;;
14766;SDS011;7475;53.558;9.970;2024-02-15T12:59:19;19.05;;;14.90;;
14766;SDS011;7475;53.558;9.970;2024-02-15T13:01:45;18.88;;;14.73;;
14766;SDS011;7475;53.558;9.970;2024-02-15T13:04:21;14.02;;;11.95;;
14766;SDS011;7475;53.558;9.970;2024-02-15T13:06:49;14.32;;;11.32;;
14766;SDS011;7475;53.558;9.970;2024-02-15T13:09:14;18.52;;;11.45;;
14766;SDS011;7475;53.558;9.970;2024-02-15T13:11:39;13.13;;;10.50;;
14766;SDS011;7475;53.558;9.970;2024-02-15T13:14:05;14.15;;;10.65;;
14766;SDS011;7475;53.558;9.970;2024-02-15T13:16:30;11.25;;;10.05;;
14766;SDS011;7475;53.558;9.970;2024-02-15T13:18:56;12.13;;;9.82;;
14766;SDS011;7475;53.558;9.970;2024-02-15T13:21:23;13.07;;;10.00;;
14766;SDS011;7475;53.558;9.970;2024-02-15T13:23:55;11.38;;;10.13;;
14766;SDS011;7475;53.558;9.970;2024-02-15T13:26:20;13.98;;;10.75;;
14766;SDS011;7475;53.558;9.970;2024-02-15T13:28:46;11.85;;;9.73;;
14766;SDS011;7475;53.558;9.970;2024-02-15T13:31:12;12.43;;;10.45;;
14766;SDS011;7475;53.558;9.970;2024-02-15T13:33:38;12.73;;;10.02;;
14766;SDS011;7475;53.558;9.970;2024-02-15T13:36:03;13.70;;;11.45;;
14766;SDS011;7475;53.558;9.970;2024-02-15T13:38:31;14.70;;;10.75;;
14766;SDS011;7475;53.558;9.970;2024-02-15T13:40:57;13.43;;;10.25;;
14766;SDS011;7475;53.558;9.970;2024-02-15T13:43:24;14.18;;;10.25;;
14766;SDS011;7475;53.558;9.970;2024-02-15T13:45:50;13.95;;;11.40;;
14766;SDS011;7475;53.558;9.970;2024-02-15T13:48:16;14.77;;;11.73;;
14766;SDS011;7475;53.558;9.970;2024-02-15T13:50:42;14.52;;;10.82;;
14766;SDS011;7475;53.558;9.970;2024-02-15T13:53:09;14.32;;;11.45;;
14766;SDS011;7475;53.558;9.970;2024-02-15T13:55:34;13.80;;;11.65;;
14766;SDS011;7475;53.558;9.970;2024-02-15T13:58:01;14.32;;;9.90;;
14766;SDS011;7475;53.558;9.970;2024-02-15T14:00:26;14.95;;;11.88;;
14766;SDS011;7475;53.558;9.970;2024-02-15T14:02:56;12.40;;;10.45;;
14766;SDS011;7475;53.558;9.970;2024-02-15T14:05:24;13.10;;;11.38;;
14766;SDS011;7475;53.558;9.970;2024-02-15T14:07:54;15.27;;;11.70;;
14766;SDS011;7475;53.558;9.970;2024-02-15T14:10:20;14.45;;;12.38;;
14766;SDS011;7475;53.558;9.970;2024-02-15T14:12:50;12.18;;;10.98;;
14766;SDS011;7475;53.558;9.970;2024-02-15T14:15:30;14.15;;;10.60;;
14766;SDS011;7475;53.558;9.970;2024-02-15T14:17:59;15.88;;;11.25;;
14766;SDS011;7475;53.558;9.970;2024-02-15T14:20:26;11.52;;;9.48;;
14766;SDS011;7475;53.558;9.970;2024-02-15T14:22:51;15.90;;;10.55;;
14766;SDS011;7475;53.558;9.970;2024-02-15T14:25:23;12.93;;;10.20;;
14766;SDS011;7475;53.558;9.970;2024-02-15T14:27:55;10.90;;;8.50;;
14766;SDS011;7475;53.558;9.970;2024-02-15T14:30:21;13.80;;;9.95;;
14766;SDS011;7475;53.558;9.970;2024-02-15T14:33:05;12.45;;;9.82;;
14766;SDS011;7475;53.558;9.970;2024-02-15T14:35:36;16.20;;;9.27;;
14766;SDS011;7475;53.558;9.970;2024-02-15T14:38:04;11.82;;;9.65;;
14766;SDS011;7475;53.558;9.970;2024-02-15T14:40:32;10.60;;;9.35;;
14766;SDS011;7475;53.558;9.970;2024-02-15T14:42:58;12.13;;;9.43;;
14766;SDS011;7475;53.558;9.970;2024-02-15T14:45:24;10.35;;;9.35;;
14766;SDS011;7475;53.558;9.970;2024-02-15T14:47:50;10.32;;;9.15;;
14766;SDS011;7475;53.558;9.970;2024-02-15T14:50:15;11.07;;;9.20;;
14766;SDS011;7475;53.558;9.970;2024-02-15T14:52:40;10.52;;;9.43;;
14766;SDS011;7475;53.558;9.970;2024-02-15T14:55:06;12.43;;;9.45;;
14766;SDS011;7475;53.558;9.970;2024-02-15T14:57:33;13.65;;;10.90;;
14766;SDS011;7475;53.558;9.970;2024-02-15T15:00:00;12.15;;;10.60;;
14766;SDS011;7475;53.558;9.970;2024-02-15T15:02:25;17.02;;;10.82;;
14766;SDS011;7475;53.558;9.970;2024-02-15T15:04:51;13.90;;;10.55;;